Time;durP1;ratioP1;P1;durP2;ratioP2;P2;SDS_P1;SDS_P2;PMS_P1;PMS_P2;Temp;Humidity;BMP_temperature;BMP_pressure;BME280_temperature;BME280_humidity;BME280_pressure;Samples;Min_cycle;Max_cycle;Signal;HPM_P1;HPM_P2
2022/02/15 00:01:46;;;;;;;18.07;12.57;;;;;;;-2.75;100.00;98824.06;5087098;28;20196;-77
2022/02/15 00:04:20;;;;;;;19.27;13.63;;;;;;;-2.75;100.00;98817.03;5087304;28;20287;-77
2022/02/15 00:06:52;;;;;;;16.50;12.83;;;;;;;-2.79;100.00;98830.59;5085330;28;20181;-77
2022/02/15 00:09:23;;;;;;;18.60;12.73;;;;;;;-2.84;100.00;98833.69;5084350;28;20197;-78
2022/02/15 00:11:50;;;;;;;17.43;13.37;;;;;;;-2.87;100.00;98835.78;5084024;28;20188;-78
2022/02/15 00:14:17;;;;;;;18.50;13.47;;;;;;;-2.90;100.00;98829.06;5086211;28;20177;-77
2022/02/15 00:16:48;;;;;;;19.07;13.63;;;;;;;-2.89;100.00;98829.91;5085988;28;20225;-77
2022/02/15 00:19:22;;;;;;;18.73;13.10;;;;;;;-3.03;100.00;98839.13;5098094;28;20255;-78
2022/02/15 00:21:49;;;;;;;20.73;13.40;;;;;;;-3.01;100.00;98839.78;5105650;28;20198;-78
2022/02/15 00:24:16;;;;;;;20.87;12.83;;;;;;;-3.03;100.00;98838.31;5103987;28;20200;-78
2022/02/15 00:26:43;;;;;;;16.80;12.87;;;;;;;-3.11;100.00;98839.88;5087129;28;20184;-78
2022/02/15 00:29:10;;;;;;;18.57;13.40;;;;;;;-3.15;100.00;98840.34;5105362;28;20665;-77
2022/02/15 00:31:48;;;;;;;18.83;14.20;;;;;;;-3.15;100.00;98837.72;5094993;22;20228;-78
2022/02/15 00:34:19;;;;;;;19.80;13.37;;;;;;;-3.18;100.00;98846.72;5087873;28;20176;-78
2022/02/15 00:36:51;;;;;;;21.33;14.87;;;;;;;-3.18;100.00;98835.41;5106415;28;20177;-78
2022/02/15 00:39:23;;;;;;;22.57;15.10;;;;;;;-3.25;100.00;98832.56;5087583;28;20189;-78
2022/02/15 00:41:50;;;;;;;20.13;14.90;;;;;;;-3.28;100.00;98829.44;5088647;28;20180;-78
2022/02/15 00:44:21;;;;;;;21.57;15.17;;;;;;;-3.30;100.00;98828.75;5086238;28;20232;-78
2022/02/15 00:46:49;;;;;;;23.00;15.20;;;;;;;-3.31;100.00;98827.94;5104737;28;20660;-78
2022/02/15 00:49:17;;;;;;;25.03;15.70;;;;;;;-3.40;100.00;98826.22;5086175;28;20193;-77
2022/02/15 00:51:53;;;;;;;22.47;16.27;;;;;;;-3.35;100.00;98828.38;5104533;28;20386;-78
2022/02/15 00:54:19;;;;;;;21.80;16.53;;;;;;;-3.33;100.00;98831.69;5087221;28;20177;-78
2022/02/15 00:56:46;;;;;;;22.17;15.87;;;;;;;-3.35;100.00;98837.06;5086551;28;20249;-78
2022/02/15 00:59:13;;;;;;;24.20;16.97;;;;;;;-3.38;100.00;98841.78;5086237;28;20192;-78
2022/02/15 01:01:41;;;;;;;25.97;17.17;;;;;;;-3.42;100.00;98843.91;5086148;28;20206;-78
2022/02/15 01:04:13;;;;;;;21.53;16.07;;;;;;;-3.38;100.00;98841.78;5091967;22;20224;-78
2022/02/15 01:06:43;;;;;;;21.77;15.47;;;;;;;-3.37;100.00;98846.06;5084835;28;20223;-78
2022/02/15 01:09:13;;;;;;;18.33;14.07;;;;;;;-3.36;100.00;98847.72;5103325;28;20283;-78
2022/02/15 01:11:43;;;;;;;19.83;14.27;;;;;;;-3.36;100.00;98845.88;5087580;28;20192;-78
2022/02/15 01:14:12;;;;;;;19.73;14.00;;;;;;;-3.39;100.00;98837.50;5112158;22;20224;-78
2022/02/15 01:16:41;;;;;;;17.90;14.00;;;;;;;-3.46;100.00;98834.69;5067445;28;20199;-78
2022/02/15 01:19:17;;;;;;;21.50;14.17;;;;;;;-3.47;100.00;98850.53;5085097;28;20212;-78
2022/02/15 01:21:44;;;;;;;19.73;14.07;;;;;;;-3.49;100.00;98853.31;5102514;28;20192;-78
2022/02/15 01:24:12;;;;;;;19.57;14.03;;;;;;;-3.43;100.00;98854.50;5087676;28;20208;-78
2022/02/15 01:26:40;;;;;;;18.77;13.73;;;;;;;-3.44;100.00;98858.91;5073237;28;20639;-78
2022/02/15 01:29:15;;;;;;;19.27;13.83;;;;;;;-3.44;100.00;98858.91;5089973;28;20195;-78
2022/02/15 01:31:44;;;;;;;21.80;14.40;;;;;;;-3.43;100.00;98865.81;5089225;28;20283;-78
2022/02/15 01:34:13;;;;;;;23.73;14.53;;;;;;;-3.46;100.00;98863.50;5089127;28;20180;-78
2022/02/15 01:36:45;;;;;;;21.57;14.90;;;;;;;-3.44;100.00;98855.47;5104569;28;20463;-78
2022/02/15 01:39:19;;;;;;;20.07;14.47;;;;;;;-3.48;100.00;98867.22;5089749;28;20487;-78
2022/02/15 01:41:49;;;;;;;19.83;13.93;;;;;;;-3.52;100.00;98874.56;5105802;28;20192;-78
2022/02/15 01:44:18;;;;;;;18.17;14.43;;;;;;;-3.59;100.00;98856.00;5087777;28;20216;-78
2022/02/15 01:46:51;;;;;;;19.30;14.53;;;;;;;-3.61;100.00;98850.09;5087555;28;20195;-78
2022/02/15 01:49:21;;;;;;;24.33;15.37;;;;;;;-3.60;100.00;98850.94;5086803;28;20200;-78
2022/02/15 01:51:49;;;;;;;20.17;14.03;;;;;;;-3.55;100.00;98846.06;5086775;28;20188;-78
2022/02/15 01:54:17;;;;;;;21.20;14.60;;;;;;;-3.62;100.00;98850.25;5106696;28;20535;-78
2022/02/15 01:56:49;;;;;;;24.47;14.80;;;;;;;-3.63;100.00;98846.78;5087678;28;20191;-78
2022/02/15 01:59:19;;;;;;;22.10;15.13;;;;;;;-3.64;100.00;98853.00;5107016;28;20583;-78
2022/02/15 02:01:50;;;;;;;20.50;14.03;;;;;;;-3.61;100.00;98862.38;5090780;28;20188;-78
2022/02/15 02:07:07;;;;;;;21.83;14.83;;;;;;;-3.58;100.00;98855.03;5101621;28;20468;-78
2022/02/15 02:09:39;;;;;;;19.20;14.57;;;;;;;-3.64;100.00;98847.75;5082861;28;20184;-78
2022/02/15 02:12:09;;;;;;;21.13;14.37;;;;;;;-3.67;100.00;98842.00;5066995;28;20195;-78
2022/02/15 02:15:16;;;;;;;18.80;14.50;;;;;;;-3.68;100.00;98842.97;5089596;22;20712;-77
2022/02/15 02:18:10;;;;;;;20.57;14.17;;;;;;;-3.70;100.00;98844.94;5087289;28;20200;-78
2022/02/15 02:20:45;;;;;;;20.20;14.20;;;;;;;-3.75;100.00;98850.59;5067123;28;20183;-78
2022/02/15 02:23:16;;;;;;;22.20;15.30;;;;;;;-3.74;100.00;98857.50;5082517;28;20196;-78
2022/02/15 02:25:46;;;;;;;22.57;14.97;;;;;;;-3.83;100.00;98857.56;5081847;28;20287;-78
2022/02/15 02:28:17;;;;;;;21.87;15.03;;;;;;;-3.83;100.00;98863.63;5082099;28;20282;-78
2022/02/15 02:30:44;;;;;;;22.97;15.03;;;;;;;-3.88;100.00;98847.53;5082098;28;20188;-78
2022/02/15 02:33:13;;;;;;;21.67;14.77;;;;;;;-3.78;100.00;98858.75;5065658;28;20199;-78
2022/02/15 02:35:43;;;;;;;24.13;15.03;;;;;;;-3.84;100.00;98863.75;5100605;28;20196;-78
2022/02/15 02:38:11;;;;;;;18.27;13.70;;;;;;;-3.90;100.00;98848.63;5082159;28;20199;-78
2022/02/15 02:40:43;;;;;;;19.13;13.77;;;;;;;-3.88;100.00;98865.84;5082757;28;20568;-78
2022/02/15 02:43:13;;;;;;;22.93;14.73;;;;;;;-3.86;100.00;98857.84;5083287;28;20168;-78
2022/02/15 02:45:42;;;;;;;17.83;13.03;;;;;;;-3.87;100.00;98856.22;5084668;28;20492;-78
2022/02/15 02:48:09;;;;;;;21.20;14.17;;;;;;;-3.84;100.00;98861.97;5111420;28;20243;-78
2022/02/15 02:50:37;;;;;;;17.60;13.23;;;;;;;-3.83;100.00;98863.63;5109823;28;20176;-78
2022/02/15 02:53:09;;;;;;;19.40;13.77;;;;;;;-3.91;100.00;98860.06;5093307;28;20192;-78
2022/02/15 02:55:42;;;;;;;19.80;13.47;;;;;;;-3.92;100.00;98876.75;5106403;28;20177;-78
2022/02/15 02:58:10;;;;;;;19.73;13.53;;;;;;;-3.95;100.00;98866.56;5088805;28;20192;-78
2022/02/15 03:00:40;;;;;;;17.10;12.77;;;;;;;-3.81;100.00;98887.00;5106246;28;20456;-78
2022/02/15 03:03:30;;;;;;;18.23;12.97;;;;;;;-3.83;100.00;98883.72;5108496;28;20184;-78
2022/02/15 03:06:00;;;;;;;19.23;13.00;;;;;;;-3.87;100.00;98879.75;5094091;28;20571;-78
2022/02/15 03:08:29;;;;;;;21.03;13.80;;;;;;;-3.81;100.00;98885.22;5094071;28;20192;-78
2022/02/15 03:10:59;;;;;;;21.97;14.37;;;;;;;-3.86;100.00;98876.97;5100552;22;20188;-77
2022/02/15 03:13:48;;;;;;;20.17;13.20;;;;;;;-3.78;100.00;98891.97;5110607;28;20607;-78
2022/02/15 03:16:24;;;;;;;21.30;13.73;;;;;;;-3.81;100.00;98887.84;5093577;28;20192;-78
2022/02/15 03:18:54;;;;;;;20.63;13.93;;;;;;;-3.74;100.00;98894.16;5112248;28;20575;-78
2022/02/15 03:21:24;;;;;;;19.80;13.63;;;;;;;-3.70;100.00;98910.38;5112238;28;20183;-78
2022/02/15 03:24:13;;;;;;;18.60;13.57;;;;;;;-3.70;100.00;98908.59;5111821;28;20213;-78
2022/02/15 03:26:43;;;;;;;21.23;14.37;;;;;;;-3.70;100.00;98910.38;5110510;28;20200;-77
2022/02/15 03:29:26;;;;;;;22.47;14.70;;;;;;;-3.67;100.00;98912.69;5118597;22;20236;-78
2022/02/15 03:31:55;;;;;;;21.83;14.20;;;;;;;-3.69;100.00;98907.63;5077438;28;20193;-78
2022/02/15 03:34:32;;;;;;;17.13;13.30;;;;;;;-3.63;100.00;98912.25;5114200;28;20207;-78
2022/02/15 03:36:59;;;;;;;18.27;13.60;;;;;;;-3.61;100.00;98909.50;5095023;28;20204;-77
2022/02/15 03:39:40;;;;;;;21.27;14.83;;;;;;;-3.58;100.00;98914.41;5117626;22;20224;-77
2022/02/15 03:45:16;;;;;;;20.03;13.90;;;;;;;-3.61;100.00;98918.19;5094491;28;20212;-79
2022/02/15 03:48:26;;;;;;;19.20;14.23;;;;;;;-3.58;100.00;98909.19;5142342;22;20479;-78
2022/02/15 03:50:53;;;;;;;21.20;13.97;;;;;;;-3.60;100.00;98914.59;5113801;28;20256;-77
2022/02/15 03:53:26;;;;;;;16.90;13.77;;;;;;;-3.58;100.00;98917.03;5113719;28;20180;-78
2022/02/15 03:55:53;;;;;;;20.40;14.20;;;;;;;-3.58;100.00;98917.03;5104191;22;20237;-77
2022/02/15 03:58:25;;;;;;;19.27;13.70;;;;;;;-3.60;100.00;98917.22;5076430;28;20281;-78
2022/02/15 04:00:57;;;;;;;22.60;14.83;;;;;;;-3.62;100.00;98926.16;5090035;28;20193;-78
2022/02/15 04:03:27;;;;;;;19.67;13.87;;;;;;;-3.62;100.00;98927.00;5074628;28;20644;-78
2022/02/15 04:05:58;;;;;;;19.27;14.13;;;;;;;-3.63;100.00;98927.13;5071955;28;20209;-78
2022/02/15 04:08:30;;;;;;;20.07;14.77;;;;;;;-3.66;100.00;98943.97;5091304;28;20196;-78
2022/02/15 04:10:59;;;;;;;22.63;14.80;;;;;;;-3.70;100.00;98933.94;5074340;28;20196;-78
2022/02/15 04:13:31;;;;;;;20.00;14.60;;;;;;;-3.71;100.00;98953.22;5090575;28;20185;-78
2022/02/15 04:16:13;;;;;;;18.67;13.97;;;;;;;-3.71;100.00;98956.66;5056615;28;20584;-78
2022/02/15 04:18:43;;;;;;;17.63;13.87;;;;;;;-3.80;100.00;98947.06;5075525;28;20173;-78
2022/02/15 04:21:15;;;;;;;18.73;13.90;;;;;;;-3.76;100.00;98958.06;5074144;28;20185;-78
2022/02/15 04:23:53;;;;;;;18.70;13.93;;;;;;;-3.78;100.00;98952.97;5074833;28;20220;-78
2022/02/15 04:26:22;;;;;;;20.07;14.67;;;;;;;-3.81;100.00;98955.88;5089683;28;20195;-78
2022/02/15 04:28:49;;;;;;;16.67;13.60;;;;;;;-3.82;100.00;98956.84;5074142;28;20223;-78
2022/02/15 04:31:23;;;;;;;21.77;14.30;;;;;;;-3.83;100.00;98957.03;5072394;28;20196;-78
2022/02/15 04:33:50;;;;;;;18.87;14.27;;;;;;;-3.83;100.00;98957.84;5092597;28;20244;-78
2022/02/15 04:36:21;;;;;;;21.63;13.57;;;;;;;-3.80;100.00;98939.22;5074063;28;20192;-78
2022/02/15 04:39:03;;;;;;;19.03;14.37;;;;;;;-3.80;100.00;98956.72;5090411;28;20548;-78
2022/02/15 04:41:34;;;;;;;17.80;14.00;;;;;;;-3.82;100.00;98954.22;5057195;28;20189;-78
2022/02/15 04:44:08;;;;;;;18.27;13.43;;;;;;;-3.81;100.00;98945.41;5073750;28;20216;-78
2022/02/15 04:46:35;;;;;;;18.87;13.67;;;;;;;-3.77;100.00;98943.31;5096138;28;20223;-79
2022/02/15 04:49:08;;;;;;;22.10;14.57;;;;;;;-3.76;100.00;98950.22;5091257;28;20207;-78
2022/02/15 04:51:39;;;;;;;19.07;14.13;;;;;;;-3.72;100.00;98946.34;5094811;28;20169;-78
2022/02/15 04:54:10;;;;;;;19.77;13.93;;;;;;;-3.65;100.00;98963.13;5092932;28;20177;-78
2022/02/15 04:56:37;;;;;;;23.60;14.77;;;;;;;-3.67;100.00;98972.91;5091506;28;20224;-78
2022/02/15 04:59:07;;;;;;;19.97;14.30;;;;;;;-3.63;100.00;98966.41;5080704;22;20225;-77
2022/02/15 05:01:42;;;;;;;21.70;14.40;;;;;;;-3.53;100.00;98976.81;5077146;28;20563;-78
2022/02/15 05:07:07;;;;;;;18.33;14.03;;;;;;;-3.57;100.00;98976.31;5109100;28;20179;-78
2022/02/15 05:09:40;;;;;;;19.27;13.53;;;;;;;-3.51;100.00;98986.19;5094048;28;20178;-78
2022/02/15 05:12:17;;;;;;;19.33;13.53;;;;;;;-3.48;100.00;98983.28;5110744;28;20575;-78
2022/02/15 05:14:48;;;;;;;20.43;15.37;;;;;;;-3.38;100.00;98997.16;5092553;28;20188;-78
2022/02/15 05:17:26;;;;;;;19.63;15.73;;;;;;;-3.33;100.00;99000.16;5093944;28;20558;-78
2022/02/15 05:19:57;;;;;;;22.87;16.80;;;;;;;-3.28;100.00;99000.53;5072704;28;20180;-78
2022/02/15 05:22:46;;;;;;;21.17;16.03;;;;;;;-3.24;100.00;98999.28;5106138;28;20188;-78
2022/02/15 05:25:41;;;;;;;18.13;14.23;;;;;;;-3.15;100.00;99003.63;5105370;28;20231;-78
2022/02/15 05:28:42;;;;;;;19.07;14.50;;;;;;;-3.09;100.00;98986.50;5103880;28;20241;-78
2022/02/15 05:31:23;;;;;;;19.30;13.80;;;;;;;-3.00;100.00;99001.31;5106499;28;20200;-78
2022/02/15 05:33:56;;;;;;;20.00;16.17;;;;;;;-2.92;100.00;99006.63;5105896;28;20421;-78
2022/02/15 05:36:27;;;;;;;21.00;14.60;;;;;;;-2.90;100.00;99004.69;5108936;28;20222;-78
2022/02/15 05:38:57;;;;;;;18.50;14.33;;;;;;;-2.90;100.00;98999.47;5089183;28;20188;-78
2022/02/15 05:41:51;;;;;;;18.33;14.50;;;;;;;-2.84;100.00;99001.47;5119556;22;20322;-78
2022/02/15 05:45:20;;;;;;;19.57;13.90;;;;;;;-2.72;100.00;99008.16;5112396;28;20216;-78
2022/02/15 05:48:06;;;;;;;18.57;13.50;;;;;;;-2.70;100.00;99000.09;5112363;28;20171;-78
2022/02/15 05:50:59;;;;;;;15.93;13.33;;;;;;;-2.68;100.00;99003.41;5110402;28;20168;-78
2022/02/15 05:53:47;;;;;;;17.70;13.50;;;;;;;-2.72;100.00;98987.16;5119197;22;20176;-77
2022/02/15 05:56:39;;;;;;;17.90;13.23;;;;;;;-2.57;100.00;99010.22;5055977;28;20194;-78
2022/02/15 05:59:27;;;;;;;18.23;12.53;;;;;;;-2.57;100.00;99011.06;4985576;28;20204;-78
2022/02/15 06:02:07;;;;;;;16.37;13.17;;;;;;;-2.47;100.00;99018.84;5062383;22;20226;-78
2022/02/15 06:04:57;;;;;;;15.47;12.07;;;;;;;-2.43;100.00;99022.81;5045261;28;20659;-78
2022/02/15 06:07:33;;;;;;;15.57;12.27;;;;;;;-2.35;100.00;99025.50;5026216;28;20182;-78
2022/02/15 06:10:28;;;;;;;17.97;12.57;;;;;;;-2.27;100.00;99036.03;5042076;28;20199;-78
2022/02/15 06:13:14;;;;;;;15.50;11.73;;;;;;;-2.16;100.00;99048.94;5029292;28;20353;-78
2022/02/15 06:15:47;;;;;;;15.80;11.70;;;;;;;-2.11;100.00;99051.09;5051553;28;20175;-78
2022/02/15 06:18:43;;;;;;;16.27;12.30;;;;;;;-2.03;100.00;99059.00;5033720;28;20262;-78
2022/02/15 06:21:12;;;;;;;14.37;11.30;;;;;;;-1.94;100.00;99071.22;5047953;28;20268;-78
2022/02/15 06:23:45;;;;;;;15.93;11.80;;;;;;;-1.95;100.00;99064.31;5026265;28;20213;-78
2022/02/15 06:26:13;;;;;;;16.20;11.90;;;;;;;-1.85;100.00;99075.53;5027250;28;20512;-78
2022/02/15 06:29:10;;;;;;;15.80;12.07;;;;;;;-1.80;100.00;99068.03;4998537;28;20194;-78
2022/02/15 06:31:46;;;;;;;16.97;12.13;;;;;;;-1.72;100.00;99065.44;5043303;28;20186;-78
2022/02/15 06:34:31;;;;;;;16.70;12.27;;;;;;;-1.59;100.00;99062.41;5043834;28;20188;-79
2022/02/15 06:37:05;;;;;;;14.13;11.63;;;;;;;-1.49;100.00;99069.19;5059461;28;20205;-78
2022/02/15 06:39:46;;;;;;;16.47;12.27;;;;;;;-1.36;100.00;99061.72;5044705;28;20229;-78
2022/02/15 06:42:15;;;;;;;14.90;12.00;;;;;;;-1.22;100.00;99055.03;5026572;28;20190;-78
2022/02/15 06:44:45;;;;;;;16.13;13.00;;;;;;;-1.10;100.00;99058.19;5026241;28;20213;-79
2022/02/15 06:47:23;;;;;;;16.93;12.27;;;;;;;-0.94;100.00;99047.72;5043252;28;20170;-79
2022/02/15 06:49:52;;;;;;;13.57;11.70;;;;;;;-0.77;100.00;99061.72;5010914;28;20665;-78
2022/02/15 06:52:51;;;;;;;15.70;12.60;;;;;;;-0.62;100.00;99049.59;5042216;28;20194;-78
2022/02/15 06:55:56;;;;;;;16.60;11.77;;;;;;;-0.30;100.00;99078.56;5049988;28;20557;-78
2022/02/15 06:58:30;;;;;;;15.67;11.77;;;;;;;-0.12;100.00;99084.50;5047024;28;20185;-79
2022/02/15 07:00:59;;;;;;;14.90;11.47;;;;;;;0.04;100.00;99080.22;5062282;28;20201;-78
2022/02/15 07:03:37;;;;;;;14.20;11.40;;;;;;;0.28;100.00;99088.09;5062601;28;20213;-78
2022/02/15 07:06:08;;;;;;;14.43;11.73;;;;;;;0.42;100.00;99087.41;5045573;28;20202;-79
2022/02/15 07:08:36;;;;;;;14.27;11.60;;;;;;;0.58;100.00;99095.25;5109059;22;20242;-79
2022/02/15 07:11:06;;;;;;;13.17;11.03;;;;;;;0.72;100.00;99102.47;5102683;28;20215;-79
2022/02/15 07:13:37;;;;;;;15.67;11.40;;;;;;;0.85;100.00;99108.03;5104852;28;20198;-79
2022/02/15 07:16:15;;;;;;;15.23;11.80;;;;;;;0.86;100.00;99106.22;5103111;28;20193;-79
2022/02/15 07:18:44;;;;;;;14.07;11.30;;;;;;;1.04;100.00;99109.44;5102766;28;20195;-79
2022/02/15 07:21:22;;;;;;;13.53;10.57;;;;;;;1.20;100.00;99113.84;5105351;28;20225;-78
2022/02/15 07:24:08;;;;;;;12.20;10.20;;;;;;;1.36;100.00;99105.81;5117964;28;20184;-78
2022/02/15 07:26:57;;;;;;;12.43;10.13;;;;;;;1.55;100.00;99108.03;5118486;28;20203;-79
2022/02/15 07:29:36;;;;;;;13.60;10.67;;;;;;;1.73;100.00;99102.44;5105433;28;20192;-78
2022/02/15 07:32:27;;;;;;;12.37;10.30;;;;;;;1.95;100.00;99108.75;5085672;28;20259;-78
2022/02/15 07:35:04;;;;;;;14.20;10.60;;;;;;;2.15;100.00;99109.88;5122606;28;20188;-78
2022/02/15 07:38:06;;;;;;;13.77;10.37;;;;;;;2.29;100.00;99109.09;5109098;28;20223;-78
2022/02/15 07:40:49;;;;;;;13.90;10.97;;;;;;;2.35;100.00;99103.09;5111801;28;20187;-78
2022/02/15 07:43:25;;;;;;;15.80;12.07;;;;;;;2.49;100.00;99107.59;5123756;28;20184;-78
2022/02/15 07:46:07;;;;;;;14.80;10.40;;;;;;;2.51;100.00;99102.13;5123943;28;20265;-78
2022/02/15 07:48:36;;;;;;;13.37;10.90;;;;;;;2.63;100.00;99109.44;5108655;28;20226;-78
2022/02/15 07:51:04;;;;;;;13.87;11.87;;;;;;;2.70;100.00;99119.28;5107793;28;20197;-78
2022/02/15 07:53:37;;;;;;;13.47;11.67;;;;;;;2.71;100.00;99116.44;5108503;28;20230;-78
2022/02/15 07:56:04;;;;;;;14.03;11.40;;;;;;;2.71;100.00;99121.72;5109608;28;20171;-78
2022/02/15 07:58:37;;;;;;;13.00;11.07;;;;;;;2.71;100.00;99116.44;5108018;28;20189;-78
2022/02/15 08:01:05;;;;;;;13.73;11.33;;;;;;;2.79;100.00;99120.84;5108988;28;20200;-79
2022/02/15 08:03:36;;;;;;;13.07;10.63;;;;;;;2.78;100.00;99129.78;5107016;28;20255;-78
2022/02/15 08:06:03;;;;;;;14.50;10.90;;;;;;;2.88;100.00;99128.50;5107052;28;20253;-78
2022/02/15 08:08:33;;;;;;;16.77;12.40;;;;;;;3.19;100.00;99132.78;5088844;28;20249;-78
2022/02/15 08:11:00;;;;;;;16.60;12.80;;;;;;;3.45;100.00;99127.81;5108614;28;20613;-78
2022/02/15 08:13:39;;;;;;;16.20;12.40;;;;;;;3.79;100.00;99133.28;5108042;28;20191;-78
2022/02/15 08:16:08;;;;;;;15.27;13.50;;;;;;;4.00;100.00;99132.47;5106704;28;20271;-78
2022/02/15 08:18:46;;;;;;;16.27;12.90;;;;;;;4.30;100.00;99131.31;5105817;28;20188;-78
2022/02/15 08:21:13;;;;;;;14.80;12.13;;;;;;;4.42;100.00;99131.63;5108510;28;20196;-79
2022/02/15 08:24:07;;;;;;;15.40;11.70;;;;;;;4.33;100.00;99133.59;5110267;28;20173;-78
2022/02/15 08:26:37;;;;;;;12.90;11.50;;;;;;;4.54;100.00;99130.06;5107878;28;20215;-78
2022/02/15 08:29:07;;;;;;;17.07;12.00;;;;;;;4.75;100.00;99123.88;5108701;28;20172;-78
2022/02/15 08:31:37;;;;;;;15.40;12.63;;;;;;;4.89;100.00;99115.00;5108106;28;20260;-78
2022/02/15 08:34:06;;;;;;;16.50;13.20;;;;;;;5.13;100.00;99129.63;5129441;23;20479;-78
2022/02/15 08:36:36;;;;;;;18.07;14.27;;;;;;;5.31;100.00;99128.09;5058030;28;20207;-78
2022/02/15 08:39:04;;;;;;;17.60;15.63;;;;;;;5.55;100.00;99132.03;5090375;28;20184;-78
2022/02/15 08:41:42;;;;;;;24.13;18.87;;;;;;;5.51;100.00;99133.44;5068569;28;20239;-78
2022/02/15 08:44:14;;;;;;;26.63;20.67;;;;;;;5.48;100.00;99136.50;5089847;28;20208;-78
2022/02/15 08:46:52;;;;;;;30.07;22.37;;;;;;;5.46;100.00;99133.22;5070369;28;20201;-78
2022/02/15 08:49:23;;;;;;;29.63;22.53;;;;;;;5.31;100.00;99133.41;5086429;28;20173;-79
2022/02/15 08:51:51;;;;;;;32.53;24.63;;;;;;;5.16;100.00;99150.47;5085608;28;20189;-78
2022/02/15 08:54:24;;;;;;;31.90;23.77;;;;;;;5.07;100.00;99151.66;5067651;28;20189;-78
2022/02/15 08:56:56;;;;;;;29.23;22.63;;;;;;;5.15;100.00;99151.47;5086602;28;20165;-78
2022/02/15 08:59:26;;;;;;;29.83;23.13;;;;;;;5.10;100.00;99154.72;5052412;28;20185;-77
2022/02/15 09:01:53;;;;;;;32.03;23.17;;;;;;;5.13;100.00;99159.63;5085014;28;20250;-76
2022/02/15 09:04:23;;;;;;;28.90;23.17;;;;;;;5.16;100.00;99155.78;5085852;28;20276;-76
2022/02/15 09:06:56;;;;;;;32.20;23.43;;;;;;;5.14;100.00;99158.63;5084400;28;20203;-76
2022/02/15 09:09:23;;;;;;;31.20;23.70;;;;;;;5.04;100.00;99146.75;5066915;28;20192;-77
2022/02/15 09:11:51;;;;;;;30.10;23.53;;;;;;;5.19;100.00;99145.56;5084908;28;20280;-76
2022/02/15 09:14:21;;;;;;;31.37;23.47;;;;;;;5.27;100.00;99144.63;5068579;28;20258;-76
2022/02/15 09:17:09;;;;;;;29.67;23.03;;;;;;;5.32;100.00;99150.94;5086880;28;20644;-76
2022/02/15 09:19:48;;;;;;;28.50;22.67;;;;;;;5.41;100.00;99146.31;5057106;23;20310;-79
2022/02/15 09:22:17;;;;;;;27.67;22.07;;;;;;;5.51;100.00;99157.38;5045684;28;20190;-78
2022/02/15 09:24:47;;;;;;;26.57;21.43;;;;;;;5.52;100.00;99143.06;5063752;28;20208;-78
2022/02/15 09:27:26;;;;;;;26.90;21.33;;;;;;;5.52;100.00;99150.22;5065676;28;20205;-78
2022/02/15 09:29:57;;;;;;;28.13;21.47;;;;;;;5.64;100.00;99148.66;5062108;28;20602;-78
2022/02/15 09:32:28;;;;;;;25.10;20.57;;;;;;;5.71;100.00;99154.78;5061782;28;20190;-78
2022/02/15 09:34:56;;;;;;;24.90;20.27;;;;;;;5.73;100.00;99150.09;5064510;28;20185;-78
2022/02/15 09:37:23;;;;;;;24.80;20.90;;;;;;;5.85;100.00;99151.16;5060842;28;20240;-78
2022/02/15 09:39:55;;;;;;;22.67;19.93;;;;;;;5.85;100.00;99151.16;5045617;28;20485;-78
2022/02/15 09:42:25;;;;;;;24.43;20.60;;;;;;;5.94;100.00;99155.28;5061636;28;20253;-78
2022/02/15 09:44:52;;;;;;;26.00;20.27;;;;;;;6.05;100.00;99157.38;5060870;28;20182;-75
2022/02/15 09:47:28;;;;;;;23.03;20.30;;;;;;;6.13;100.00;99151.84;5058670;28;20201;-75
2022/02/15 09:49:57;;;;;;;20.93;18.23;;;;;;;6.25;100.00;99160.06;5061214;28;20181;-76
2022/02/15 09:52:35;;;;;;;21.30;18.60;;;;;;;6.34;100.00;99161.50;5063780;28;20178;-75
2022/02/15 09:55:06;;;;;;;27.80;23.30;;;;;;;6.45;100.00;99170.69;5065687;28;20197;-75
2022/02/15 09:57:36;;;;;;;23.63;19.63;;;;;;;6.56;100.00;99176.25;5063933;28;20249;-75
2022/02/15 10:00:18;;;;;;;22.83;19.00;;;;;;;6.63;100.00;99171.72;5066527;28;20193;-75
2022/02/15 10:02:48;;;;;;;21.07;17.73;;;;;;;6.80;100.00;99168.66;5063725;28;20196;-75
2022/02/15 10:05:17;;;;;;;21.33;18.07;;;;;;;6.94;100.00;99178.28;5061453;28;20181;-75
2022/02/15 10:07:53;;;;;;;22.57;19.43;;;;;;;7.12;100.00;99164.31;5064366;28;20232;-75
2022/02/15 10:10:35;;;;;;;21.67;18.23;;;;;;;7.11;100.00;99162.66;5063618;28;20515;-75
2022/02/15 10:13:14;;;;;;;20.43;18.17;;;;;;;7.09;100.00;99153.03;5064871;28;20200;-75
2022/02/15 10:15:48;;;;;;;23.17;19.07;;;;;;;7.18;100.00;99163.47;5067010;28;20197;-75
2022/02/15 10:18:35;;;;;;;23.93;19.77;;;;;;;7.19;100.00;99152.59;5063851;28;20240;-74
2022/02/15 10:21:10;;;;;;;22.03;18.93;;;;;;;7.45;100.00;99155.19;5064650;28;20212;-75
2022/02/15 10:23:39;;;;;;;20.93;18.30;;;;;;;7.58;100.00;99159.63;5063636;28;20188;-75
2022/02/15 10:26:11;;;;;;;22.23;18.40;;;;;;;7.75;100.00;99149.28;5065044;28;20198;-75
2022/02/15 10:28:39;;;;;;;20.93;18.03;;;;;;;7.84;100.00;99153.34;5064843;28;20239;-75
2022/02/15 10:31:07;;;;;;;22.43;18.93;;;;;;;7.91;100.00;99154.97;5065228;28;20186;-75
2022/02/15 10:33:38;;;;;;;20.37;16.87;;;;;;;8.02;100.00;99134.81;5106697;23;20220;-74
2022/02/15 10:36:12;;;;;;;20.40;17.23;;;;;;;8.12;100.00;99151.13;5090706;28;20171;-74
2022/02/15 10:38:50;;;;;;;21.47;17.80;;;;;;;8.29;100.00;99157.63;5108834;28;20190;-75
2022/02/15 10:41:45;;;;;;;18.77;16.70;;;;;;;8.26;100.00;99147.34;5107768;28;20252;-74
2022/02/15 10:44:15;;;;;;;18.70;16.63;;;;;;;8.35;100.00;99148.75;5089152;28;20184;-75
2022/02/15 10:46:50;;;;;;;17.47;15.60;;;;;;;8.48;100.00;99139.84;5131374;22;20531;-75
2022/02/15 10:49:21;;;;;;;17.27;15.43;;;;;;;8.47;100.00;99137.38;5106224;28;20176;-74
2022/02/15 10:51:50;;;;;;;15.73;14.23;;;;;;;8.50;100.00;99123.56;5105892;28;20199;-75
2022/02/15 10:54:20;;;;;;;15.73;14.00;;;;;;;8.58;100.00;99129.50;5106736;28;20252;-74
2022/02/15 10:56:51;;;;;;;15.40;13.77;;;;;;;8.80;100.00;99137.91;5107545;28;20575;-75
2022/02/15 10:59:17;;;;;;;15.07;13.53;;;;;;;8.84;100.00;99139.91;5106963;28;20203;-75
2022/02/15 11:01:55;;;;;;;14.80;13.20;;;;;;;8.94;100.00;99141.28;5088472;28;20213;-75
2022/02/15 11:04:24;;;;;;;15.83;13.27;;;;;;;9.02;100.00;99147.13;5087161;28;20165;-75
2022/02/15 11:06:54;;;;;;;14.93;13.17;;;;;;;9.16;100.00;99142.47;5107298;28;20548;-75
2022/02/15 11:09:36;;;;;;;15.97;13.47;;;;;;;9.27;100.00;99136.41;5110585;28;20180;-75
2022/02/15 11:12:32;;;;;;;14.53;12.57;;;;;;;9.42;100.00;99141.38;5109183;28;20487;-75
2022/02/15 11:15:11;;;;;;;14.90;13.23;;;;;;;9.47;100.00;99149.53;5108099;28;20178;-76
2022/02/15 11:17:50;;;;;;;15.00;13.40;;;;;;;9.57;100.00;99155.16;5093011;28;20210;-75
2022/02/15 11:20:19;;;;;;;16.47;13.60;;;;;;;9.69;100.00;99161.41;5092890;28;20183;-75
2022/02/15 11:22:52;;;;;;;15.57;14.03;;;;;;;9.84;99.83;99156.47;5092846;28;20181;-75
2022/02/15 11:25:44;;;;;;;15.27;13.77;;;;;;;9.91;97.44;99154.50;5093528;28;20245;-75
2022/02/15 11:28:14;;;;;;;14.17;12.77;;;;;;;9.95;96.46;99150.34;5111862;28;20169;-75
2022/02/15 11:31:02;;;;;;;13.70;12.40;;;;;;;10.06;96.68;99154.09;5074811;28;20188;-75
2022/02/15 11:33:32;;;;;;;14.27;12.77;;;;;;;10.09;95.87;99146.44;5107285;28;20234;-75
2022/02/15 11:36:12;;;;;;;14.00;12.47;;;;;;;10.13;96.34;99147.59;5107828;28;20187;-75
2022/02/15 11:38:58;;;;;;;14.90;13.40;;;;;;;10.30;95.61;99147.00;5118006;22;20254;-74
2022/02/15 11:41:33;;;;;;;14.53;13.03;;;;;;;10.36;95.82;99144.19;5109815;28;20194;-75
2022/02/15 11:44:30;;;;;;;15.50;13.83;;;;;;;10.49;94.48;99145.88;5091948;28;20168;-75
2022/02/15 11:47:17;;;;;;;15.37;13.77;;;;;;;10.54;94.69;99149.47;5109582;28;20238;-75
2022/02/15 11:49:58;;;;;;;14.90;13.40;;;;;;;10.58;95.47;99149.84;5111383;28;20257;-75
2022/02/15 11:52:28;;;;;;;15.53;13.93;;;;;;;10.54;97.56;99140.66;5287828;22;20254;-75
2022/02/15 11:55:07;;;;;;;16.50;13.77;;;;;;;10.54;98.60;99149.47;5116328;22;20218;-75